sensor_id;sensor_type;location;lat;lon;timestamp;pressure;altitude;pressure_sealevel;temperature;humidity
23363;BME280;11853;48.080;11.960;2023-10-08T00:00:47;95568.44;;;18.40;40.99
23363;BME280;11853;48.080;11.960;2023-10-08T00:03:21;95574.66;;;18.41;41.29
23363;BME280;11853;48.080;11.960;2023-10-08T00:05:48;95580.19;;;18.39;41.72
23363;BME280;11853;48.080;11.960;2023-10-08T00:08:15;95574.44;;;18.42;41.40
23363;BME280;11853;48.080;11.960;2023-10-08T00:10:42;95572.78;;;18.41;41.25
23363;BME280;11853;48.080;11.960;2023-10-08T00:13:13;95574.66;;;18.41;41.55
23363;BME280;11853;48.080;11.960;2023-10-08T00:15:42;95553.50;;;18.38;41.31
23363;BME280;11853;48.080;11.960;2023-10-08T00:18:26;95559.19;;;18.43;41.63
23363;BME280;11853;48.080;11.960;2023-10-08T00:20:51;95557.03;;;18.38;41.29
23363;BME280;11853;48.080;11.960;2023-10-08T00:23:23;95547.31;;;18.37;41.67
23363;BME280;11853;48.080;11.960;2023-10-08T00:25:53;95541.44;;;18.34;42.13
23363;BME280;11853;48.080;11.960;2023-10-08T00:28:20;95556.00;;;18.39;41.62
23363;BME280;11853;48.080;11.960;2023-10-08T00:30:46;95548.59;;;18.41;41.88
23363;BME280;11853;48.080;11.960;2023-10-08T00:33:13;95544.06;;;18.42;42.06
23363;BME280;11853;48.080;11.960;2023-10-08T00:35:41;95536.00;;;18.42;42.31
23363;BME280;11853;48.080;11.960;2023-10-08T00:38:08;95533.31;;;18.42;42.34
23363;BME280;11853;48.080;11.960;2023-10-08T00:40:41;95530.00;;;18.40;42.54
23363;BME280;11853;48.080;11.960;2023-10-08T00:43:28;95536.38;;;18.39;42.88
23363;BME280;11853;48.080;11.960;2023-10-08T00:45:56;95528.38;;;18.45;42.96
23363;BME280;11853;48.080;11.960;2023-10-08T00:48:25;95525.91;;;18.44;42.86
23363;BME280;11853;48.080;11.960;2023-10-08T00:50:54;95538.31;;;18.45;43.32
23363;BME280;11853;48.080;11.960;2023-10-08T00:53:35;95531.28;;;18.44;43.02
23363;BME280;11853;48.080;11.960;2023-10-08T00:56:06;95531.28;;;18.44;43.54
23363;BME280;11853;48.080;11.960;2023-10-08T00:58:40;95527.94;;;18.42;43.57
23363;BME280;11853;48.080;11.960;2023-10-08T01:01:06;95529.25;;;18.46;43.77
23363;BME280;11853;48.080;11.960;2023-10-08T01:03:37;95534.63;;;18.46;42.93
23363;BME280;11853;48.080;11.960;2023-10-08T01:06:09;95524.25;;;18.43;43.78
23363;BME280;11853;48.080;11.960;2023-10-08T01:08:36;95526.28;;;18.41;43.38
23363;BME280;11853;48.080;11.960;2023-10-08T01:13:43;95538.97;;;18.47;43.75
23363;BME280;11853;48.080;11.960;2023-10-08T01:16:11;95532.56;;;18.48;43.44
23363;BME280;11853;48.080;11.960;2023-10-08T01:18:37;95527.47;;;18.53;43.67
23363;BME280;11853;48.080;11.960;2023-10-08T01:21:08;95523.69;;;18.48;43.53
23363;BME280;11853;48.080;11.960;2023-10-08T01:23:34;95523.88;;;18.46;44.19
23363;BME280;11853;48.080;11.960;2023-10-08T01:25:59;95530.91;;;18.47;43.79
23363;BME280;11853;48.080;11.960;2023-10-08T01:28:38;95536.44;;;18.45;43.88
23363;BME280;11853;48.080;11.960;2023-10-08T01:31:04;95526.56;;;18.46;44.24
23363;BME280;11853;48.080;11.960;2023-10-08T01:33:30;95531.44;;;18.42;44.31
23363;BME280;11853;48.080;11.960;2023-10-08T01:36:04;95533.69;;;18.39;44.43
23363;BME280;11853;48.080;11.960;2023-10-08T01:38:33;95528.31;;;18.39;44.44
23363;BME280;11853;48.080;11.960;2023-10-08T01:40:59;95532.03;;;18.38;44.29
23363;BME280;11853;48.080;11.960;2023-10-08T01:43:43;95521.66;;;18.35;44.38
23363;BME280;11853;48.080;11.960;2023-10-08T01:46:09;95523.13;;;18.37;44.37
23363;BME280;11853;48.080;11.960;2023-10-08T01:48:37;95531.66;;;18.41;45.41
23363;BME280;11853;48.080;11.960;2023-10-08T01:51:05;95527.31;;;18.40;44.59
23363;BME280;11853;48.080;11.960;2023-10-08T01:53:42;95522.47;;;18.35;44.33
23363;BME280;11853;48.080;11.960;2023-10-08T01:56:08;95520.97;;;18.33;44.46
23363;BME280;11853;48.080;11.960;2023-10-08T01:58:36;95527.66;;;18.37;44.85
23363;BME280;11853;48.080;11.960;2023-10-08T02:01:02;95519.03;;;18.41;44.78
23363;BME280;11853;48.080;11.960;2023-10-08T02:03:31;95517.56;;;18.39;44.48
23363;BME280;11853;48.080;11.960;2023-10-08T02:05:56;95516.56;;;18.40;44.68
23363;BME280;11853;48.080;11.960;2023-10-08T02:08:25;95511.81;;;18.42;44.48
23363;BME280;11853;48.080;11.960;2023-10-08T02:10:51;95516.19;;;18.43;44.23
23363;BME280;11853;48.080;11.960;2023-10-08T02:13:18;95506.81;;;18.39;44.26
23363;BME280;11853;48.080;11.960;2023-10-08T02:15:45;95508.84;;;18.37;43.93
23363;BME280;11853;48.080;11.960;2023-10-08T02:18:12;95508.84;;;18.37;43.82
23363;BME280;11853;48.080;11.960;2023-10-08T02:20:42;95504.50;;;18.36;43.84
23363;BME280;11853;48.080;11.960;2023-10-08T02:23:08;95510.91;;;18.35;43.77
23363;BME280;11853;48.080;11.960;2023-10-08T02:25:38;95497.75;;;18.40;43.05
23363;BME280;11853;48.080;11.960;2023-10-08T02:28:06;95506.25;;;18.43;42.49
23363;BME280;11853;48.080;11.960;2023-10-08T02:30:36;95500.69;;;18.45;43.00
23363;BME280;11853;48.080;11.960;2023-10-08T02:33:02;95486.63;;;18.43;42.91
23363;BME280;11853;48.080;11.960;2023-10-08T02:35:28;95495.97;;;18.47;41.92
23363;BME280;11853;48.080;11.960;2023-10-08T02:37:53;95492.47;;;18.46;41.90
23363;BME280;11853;48.080;11.960;2023-10-08T02:40:20;95494.13;;;18.48;42.03
23363;BME280;11853;48.080;11.960;2023-10-08T02:42:53;95493.47;;;18.45;42.45
23363;BME280;11853;48.080;11.960;2023-10-08T02:45:27;95500.06;;;18.43;41.14
23363;BME280;11853;48.080;11.960;2023-10-08T02:47:56;95484.94;;;18.42;41.58
23363;BME280;11853;48.080;11.960;2023-10-08T02:50:22;95487.09;;;18.46;41.47
23363;BME280;11853;48.080;11.960;2023-10-08T02:52:49;95475.50;;;18.46;41.96
23363;BME280;11853;48.080;11.960;2023-10-08T02:55:18;95484.78;;;18.43;41.53
23363;BME280;11853;48.080;11.960;2023-10-08T02:58:02;95480.41;;;18.42;41.45
23363;BME280;11853;48.080;11.960;2023-10-08T03:00:28;95474.19;;;18.42;41.06
23363;BME280;11853;48.080;11.960;2023-10-08T03:03:01;95471.34;;;18.43;41.17
23363;BME280;11853;48.080;11.960;2023-10-08T03:05:32;95475.88;;;18.43;41.25
23363;BME280;11853;48.080;11.960;2023-10-08T03:08:02;95474.03;;;18.43;41.33
23363;BME280;11853;48.080;11.960;2023-10-08T03:10:37;95474.19;;;18.42;41.37
23363;BME280;11853;48.080;11.960;2023-10-08T03:13:03;95464.47;;;18.41;41.60
23363;BME280;11853;48.080;11.960;2023-10-08T03:15:35;95468.44;;;18.45;41.71
23363;BME280;11853;48.080;11.960;2023-10-08T03:18:13;95464.56;;;18.48;41.83
23363;BME280;11853;48.080;11.960;2023-10-08T03:20:41;95466.41;;;18.47;41.24
23363;BME280;11853;48.080;11.960;2023-10-08T03:23:13;95464.75;;;18.46;41.86
23363;BME280;11853;48.080;11.960;2023-10-08T03:25:59;95470.13;;;18.46;42.03
23363;BME280;11853;48.080;11.960;2023-10-08T03:28:27;95471.97;;;18.45;42.06
23363;BME280;11853;48.080;11.960;2023-10-08T03:31:18;95462.69;;;18.48;41.99
23363;BME280;11853;48.080;11.960;2023-10-08T03:33:45;95459.38;;;18.46;42.09
23363;BME280;11853;48.080;11.960;2023-10-08T03:36:14;95471.13;;;18.45;42.62
23363;BME280;11853;48.080;11.960;2023-10-08T03:38:47;95463.91;;;18.45;42.96
23363;BME280;11853;48.080;11.960;2023-10-08T03:41:17;95463.56;;;18.49;43.64
23363;BME280;11853;48.080;11.960;2023-10-08T03:43:44;95468.28;;;18.46;43.55
23363;BME280;11853;48.080;11.960;2023-10-08T03:49:39;95467.69;;;18.51;43.03
23363;BME280;11853;48.080;11.960;2023-10-08T03:52:10;95465.38;;;18.48;43.03
23363;BME280;11853;48.080;11.960;2023-10-08T03:54:36;95471.41;;;18.50;43.16
23363;BME280;11853;48.080;11.960;2023-10-08T03:57:07;95466.03;;;18.50;43.50
23363;BME280;11853;48.080;11.960;2023-10-08T03:59:40;95471.41;;;18.50;43.87
23363;BME280;11853;48.080;11.960;2023-10-08T04:02:07;95464.38;;;18.49;44.04
23363;BME280;11853;48.080;11.960;2023-10-08T04:05:08;95471.78;;;18.47;43.82
23363;BME280;11853;48.080;11.960;2023-10-08T04:07:47;95469.75;;;18.49;44.42
23363;BME280;11853;48.080;11.960;2023-10-08T04:10:24;95456.50;;;18.48;44.41
23363;BME280;11853;48.080;11.960;2023-10-08T04:13:03;95461.88;;;18.48;44.43
23363;BME280;11853;48.080;11.960;2023-10-08T04:15:29;95454.38;;;18.43;44.35
23363;BME280;11853;48.080;11.960;2023-10-08T04:17:54;95457.69;;;18.45;44.63
23363;BME280;11853;48.080;11.960;2023-10-08T04:20:22;95459.94;;;18.41;44.75
23363;BME280;11853;48.080;11.960;2023-10-08T04:23:08;95470.50;;;18.43;44.90
23363;BME280;11853;48.080;11.960;2023-10-08T04:25:46;95455.09;;;18.37;45.21
23363;BME280;11853;48.080;11.960;2023-10-08T04:28:20;95468.00;;;18.41;47.44
23363;BME280;11853;48.080;11.960;2023-10-08T04:30:46;95470.50;;;18.43;46.50
23363;BME280;11853;48.080;11.960;2023-10-08T04:33:16;95473.00;;;18.44;45.71
23363;BME280;11853;48.080;11.960;2023-10-08T04:35:43;95462.63;;;18.41;45.99
23363;BME280;11853;48.080;11.960;2023-10-08T04:38:25;95454.56;;;18.41;46.39
23363;BME280;11853;48.080;11.960;2023-10-08T04:40:52;95466.06;;;18.35;46.46
23363;BME280;11853;48.080;11.960;2023-10-08T04:43:20;95465.59;;;18.32;46.93
23363;BME280;11853;48.080;11.960;2023-10-08T04:46:02;95459.19;;;18.33;46.49
23363;BME280;11853;48.080;11.960;2023-10-08T04:48:44;95465.84;;;18.37;46.81
23363;BME280;11853;48.080;11.960;2023-10-08T04:51:10;95466.59;;;18.31;47.12
23363;BME280;11853;48.080;11.960;2023-10-08T04:53:38;95458.06;;;18.27;47.26
23363;BME280;11853;48.080;11.960;2023-10-08T04:56:11;95463.63;;;18.26;47.74
23363;BME280;11853;48.080;11.960;2023-10-08T04:58:44;95459.47;;;18.23;48.06
23363;BME280;11853;48.080;11.960;2023-10-08T05:01:14;95479.13;;;18.23;48.07
23363;BME280;11853;48.080;11.960;2023-10-08T05:03:51;95478.47;;;18.21;48.02
23363;BME280;11853;48.080;11.960;2023-10-08T05:06:33;95479.66;;;18.19;48.05
23363;BME280;11853;48.080;11.960;2023-10-08T05:09:09;95482.78;;;18.22;48.14
23363;BME280;11853;48.080;11.960;2023-10-08T05:11:48;95490.41;;;18.19;48.08
23363;BME280;11853;48.080;11.960;2023-10-08T05:14:22;95492.44;;;18.17;48.13
23363;BME280;11853;48.080;11.960;2023-10-08T05:17:00;95496.97;;;18.16;48.43
23363;BME280;11853;48.080;11.960;2023-10-08T05:19:29;95508.75;;;18.15;48.07
23363;BME280;11853;48.080;11.960;2023-10-08T05:22:03;95500.69;;;18.15;48.24
23363;BME280;11853;48.080;11.960;2023-10-08T05:24:45;95520.16;;;18.17;48.46
23363;BME280;11853;48.080;11.960;2023-10-08T05:27:38;95522.16;;;18.15;48.28
23363;BME280;11853;48.080;11.960;2023-10-08T05:30:17;95523.38;;;18.13;48.41
23363;BME280;11853;48.080;11.960;2023-10-08T05:32:58;95533.44;;;18.11;48.62
23363;BME280;11853;48.080;11.960;2023-10-08T05:35:45;95529.28;;;18.08;48.68
23363;BME280;11853;48.080;11.960;2023-10-08T05:38:13;95539.84;;;18.10;48.84
23363;BME280;11853;48.080;11.960;2023-10-08T05:40:48;95541.88;;;18.08;48.61
23363;BME280;11853;48.080;11.960;2023-10-08T05:43:25;95539.38;;;18.06;48.48
23363;BME280;11853;48.080;11.960;2023-10-08T05:46:08;95550.13;;;18.06;48.10
23363;BME280;11853;48.080;11.960;2023-10-08T05:48:53;95548.28;;;18.07;48.55
23363;BME280;11853;48.080;11.960;2023-10-08T05:51:33;95557.53;;;18.04;48.30
23363;BME280;11853;48.080;11.960;2023-10-08T05:54:18;95561.88;;;18.05;48.71
23363;BME280;11853;48.080;11.960;2023-10-08T05:57:06;95577.16;;;18.05;48.76
23363;BME280;11853;48.080;11.960;2023-10-08T05:59:43;95579.16;;;18.02;48.77
23363;BME280;11853;48.080;11.960;2023-10-08T06:02:28;95588.44;;;18.00;48.99
23363;BME280;11853;48.080;11.960;2023-10-08T06:05:14;95587.59;;;17.99;49.00
23363;BME280;11853;48.080;11.960;2023-10-08T06:07:53;95591.31;;;17.98;49.07
23363;BME280;11853;48.080;11.960;2023-10-08T06:10:20;95596.84;;;17.97;48.92
23363;BME280;11853;48.080;11.960;2023-10-08T06:18:24;95603.94;;;17.90;49.17
23363;BME280;11853;48.080;11.960;2023-10-08T06:20:53;95603.28;;;17.88;48.85
23363;BME280;11853;48.080;11.960;2023-10-08T06:23:26;95603.59;;;17.93;48.69
23363;BME280;11853;48.080;11.960;2023-10-08T06:25:54;95605.63;;;17.91;48.68
23363;BME280;11853;48.080;11.960;2023-10-08T06:28:26;95610.50;;;17.87;49.01
23363;BME280;11853;48.080;11.960;2023-10-08T06:30:54;95616.34;;;17.91;49.32
23363;BME280;11853;48.080;11.960;2023-10-08T06:33:24;95610.97;;;17.91;49.19
23363;BME280;11853;48.080;11.960;2023-10-08T06:35:56;95611.66;;;17.93;49.63
23363;BME280;11853;48.080;11.960;2023-10-08T06:38:37;95589.81;;;17.96;49.45
23363;BME280;11853;48.080;11.960;2023-10-08T06:41:05;95590.63;;;17.96;49.82
23363;BME280;11853;48.080;11.960;2023-10-08T06:43:47;95583.09;;;18.00;49.29
23363;BME280;11853;48.080;11.960;2023-10-08T06:46:28;95577.16;;;18.05;49.58
23363;BME280;11853;48.080;11.960;2023-10-08T06:49:02;95578.59;;;18.30;49.08
23363;BME280;11853;48.080;11.960;2023-10-08T06:51:28;95587.19;;;18.63;48.81
23363;BME280;11853;48.080;11.960;2023-10-08T06:53:56;95594.09;;;18.81;47.82
23363;BME280;11853;48.080;11.960;2023-10-08T06:56:25;95597.31;;;18.91;47.26
23363;BME280;11853;48.080;11.960;2023-10-08T06:58:51;95594.06;;;18.96;47.88
23363;BME280;11853;48.080;11.960;2023-10-08T07:01:20;95604.75;;;19.04;47.26
23363;BME280;11853;48.080;11.960;2023-10-08T07:03:56;95608.25;;;19.04;47.21
23363;BME280;11853;48.080;11.960;2023-10-08T07:06:29;95614.66;;;19.03;47.25
23363;BME280;11853;48.080;11.960;2023-10-08T07:09:01;95601.59;;;19.00;47.20
23363;BME280;11853;48.080;11.960;2023-10-08T07:11:34;95602.69;;;18.91;47.66
23363;BME280;11853;48.080;11.960;2023-10-08T07:14:04;95610.50;;;18.86;47.66
23363;BME280;11853;48.080;11.960;2023-10-08T07:16:33;95608.34;;;18.81;48.19
23363;BME280;11853;48.080;11.960;2023-10-08T07:19:00;95616.59;;;18.80;48.55
23363;BME280;11853;48.080;11.960;2023-10-08T07:21:41;95601.50;;;18.79;48.37
23363;BME280;11853;48.080;11.960;2023-10-08T07:24:15;95599.09;;;18.84;49.30
23363;BME280;11853;48.080;11.960;2023-10-08T07:26:43;95601.41;;;18.87;49.34
23363;BME280;11853;48.080;11.960;2023-10-08T07:29:16;95604.75;;;18.89;49.31
23363;BME280;11853;48.080;11.960;2023-10-08T07:31:44;95611.41;;;18.93;49.46
23363;BME280;11853;48.080;11.960;2023-10-08T07:34:18;95605.38;;;18.91;49.27
23363;BME280;11853;48.080;11.960;2023-10-08T07:36:52;95599.00;;;18.92;49.61
23363;BME280;11853;48.080;11.960;2023-10-08T07:39:20;95605.22;;;18.93;50.05
23363;BME280;11853;48.080;11.960;2023-10-08T07:41:50;95602.69;;;18.91;50.11
23363;BME280;11853;48.080;11.960;2023-10-08T07:44:16;95607.59;;;18.87;49.64
23363;BME280;11853;48.080;11.960;2023-10-08T07:46:48;95609.84;;;18.84;50.06
23363;BME280;11853;48.080;11.960;2023-10-08T07:49:13;95612.69;;;18.82;50.57
23363;BME280;11853;48.080;11.960;2023-10-08T07:51:40;95612.06;;;18.80;50.46
23363;BME280;11853;48.080;11.960;2023-10-08T07:54:06;95601.31;;;18.80;51.26
23363;BME280;11853;48.080;11.960;2023-10-08T07:56:35;95605.50;;;18.83;51.02
23363;BME280;11853;48.080;11.960;2023-10-08T07:59:03;95608.81;;;18.85;52.07
23363;BME280;11853;48.080;11.960;2023-10-08T08:01:34;95608.19;;;18.83;51.34
23363;BME280;11853;48.080;11.960;2023-10-08T08:04:00;95612.69;;;18.82;52.15
23363;BME280;11853;48.080;11.960;2023-10-08T08:06:32;95622.47;;;18.83;52.05
23363;BME280;11853;48.080;11.960;2023-10-08T08:09:02;95618.28;;;18.81;52.04
23363;BME280;11853;48.080;11.960;2023-10-08T08:11:34;95623.00;;;18.79;52.24
23363;BME280;11853;48.080;11.960;2023-10-08T08:14:02;95612.91;;;18.81;52.73
23363;BME280;11853;48.080;11.960;2023-10-08T08:16:35;95611.59;;;18.77;53.04
23363;BME280;11853;48.080;11.960;2023-10-08T08:22:04;95618.28;;;18.81;53.17
23363;BME280;11853;48.080;11.960;2023-10-08T08:24:39;95617.63;;;18.79;53.69
23363;BME280;11853;48.080;11.960;2023-10-08T08:27:12;95618.09;;;18.82;53.99
23363;BME280;11853;48.080;11.960;2023-10-08T08:29:52;95621.44;;;18.84;53.96
23363;BME280;11853;48.080;11.960;2023-10-08T08:32:27;95633.84;;;18.85;54.07
23363;BME280;11853;48.080;11.960;2023-10-08T08:35:12;95634.69;;;18.86;54.33
23363;BME280;11853;48.080;11.960;2023-10-08T08:37:42;95638.59;;;18.83;54.72
23363;BME280;11853;48.080;11.960;2023-10-08T08:40:11;95630.31;;;18.85;54.68
23363;BME280;11853;48.080;11.960;2023-10-08T08:43:09;95648.16;;;18.86;55.33
23363;BME280;11853;48.080;11.960;2023-10-08T08:45:37;95642.78;;;18.86;54.82
23363;BME280;11853;48.080;11.960;2023-10-08T08:48:06;95644.81;;;18.84;55.18
23363;BME280;11853;48.080;11.960;2023-10-08T08:50:36;95635.69;;;18.85;55.36
23363;BME280;11853;48.080;11.960;2023-10-08T08:53:03;95637.19;;;18.87;56.56
23363;BME280;11853;48.080;11.960;2023-10-08T08:55:31;95630.97;;;18.87;56.58
23363;BME280;11853;48.080;11.960;2023-10-08T08:57:59;95623.56;;;18.89;56.65
23363;BME280;11853;48.080;11.960;2023-10-08T09:00:28;95615.31;;;18.90;56.74
23363;BME280;11853;48.080;11.960;2023-10-08T09:02:55;95617.00;;;18.92;56.39
23363;BME280;11853;48.080;11.960;2023-10-08T09:05:21;95610.59;;;18.93;54.41
23363;BME280;11853;48.080;11.960;2023-10-08T09:08:01;95620.88;;;18.89;54.11
23363;BME280;11853;48.080;11.960;2023-10-08T09:10:36;95625.88;;;18.92;54.75
23363;BME280;11853;48.080;11.960;2023-10-08T09:13:04;95616.41;;;18.96;54.38
23363;BME280;11853;48.080;11.960;2023-10-08T09:15:30;95615.66;;;19.02;54.82
23363;BME280;11853;48.080;11.960;2023-10-08T09:17:58;95633.13;;;19.06;55.14
23363;BME280;11853;48.080;11.960;2023-10-08T09:20:28;95630.88;;;19.10;55.53
23363;BME280;11853;48.080;11.960;2023-10-08T09:23:14;95636.09;;;19.11;56.05
23363;BME280;11853;48.080;11.960;2023-10-08T09:25:46;95643.78;;;19.15;56.35
23363;BME280;11853;48.080;11.960;2023-10-08T09:28:15;95648.53;;;19.12;56.47
23363;BME280;11853;48.080;11.960;2023-10-08T09:30:42;95645.16;;;19.10;56.41
23363;BME280;11853;48.080;11.960;2023-10-08T09:33:11;95653.44;;;19.09;56.68
23363;BME280;11853;48.080;11.960;2023-10-08T09:35:42;95654.28;;;19.09;56.33
23363;BME280;11853;48.080;11.960;2023-10-08T09:38:09;95657.13;;;19.08;56.37
23363;BME280;11853;48.080;11.960;2023-10-08T09:40:41;95651.28;;;19.04;56.25
23363;BME280;11853;48.080;11.960;2023-10-08T09:43:10;95651.28;;;19.04;56.65
23363;BME280;11853;48.080;11.960;2023-10-08T09:45:42;95654.81;;;19.05;56.57
23363;BME280;11853;48.080;11.960;2023-10-08T09:48:11;95662.72;;;19.06;57.33
23363;BME280;11853;48.080;11.960;2023-10-08T09:50:41;95667.06;;;19.07;57.43
23363;BME280;11853;48.080;11.960;2023-10-08T09:53:09;95667.72;;;19.09;56.52
23363;BME280;11853;48.080;11.960;2023-10-08T09:55:57;95672.06;;;19.10;56.80
23363;BME280;11853;48.080;11.960;2023-10-08T09:58:27;95669.38;;;19.10;57.31
23363;BME280;11853;48.080;11.960;2023-10-08T10:00:55;95673.38;;;19.15;57.53
23363;BME280;11853;48.080;11.960;2023-10-08T10:03:22;95669.28;;;19.19;56.82
23363;BME280;11853;48.080;11.960;2023-10-08T10:05:49;95671.59;;;19.22;56.36
23363;BME280;11853;48.080;11.960;2023-10-08T10:08:16;95668.91;;;19.22;56.42
23363;BME280;11853;48.080;11.960;2023-10-08T10:10:42;95658.81;;;19.24;55.84
23363;BME280;11853;48.080;11.960;2023-10-08T10:13:16;95663.16;;;19.25;56.50
23363;BME280;11853;48.080;11.960;2023-10-08T10:15:43;95663.16;;;19.25;56.85
23363;BME280;11853;48.080;11.960;2023-10-08T10:18:16;95670.69;;;19.29;57.45
23363;BME280;11853;48.080;11.960;2023-10-08T10:20:59;95678.75;;;19.29;57.09
23363;BME280;11853;48.080;11.960;2023-10-08T10:23:38;95681.25;;;19.31;57.83
23363;BME280;11853;48.080;11.960;2023-10-08T10:26:25;95683.78;;;19.32;58.32
23363;BME280;11853;48.080;11.960;2023-10-08T10:31:46;95696.84;;;19.35;57.81
23363;BME280;11853;48.080;11.960;2023-10-08T10:34:19;95702.41;;;19.34;57.98
23363;BME280;11853;48.080;11.960;2023-10-08T10:36:49;95702.78;;;19.31;59.09
23363;BME280;11853;48.080;11.960;2023-10-08T10:39:17;95703.81;;;19.30;59.33
23363;BME280;11853;48.080;11.960;2023-10-08T10:41:53;95693.22;;;19.28;60.40
23363;BME280;11853;48.080;11.960;2023-10-08T10:44:23;95682.66;;;19.27;60.87
23363;BME280;11853;48.080;11.960;2023-10-08T10:46:50;95686.38;;;19.26;60.18
23363;BME280;11853;48.080;11.960;2023-10-08T10:49:20;95690.06;;;19.25;59.63
23363;BME280;11853;48.080;11.960;2023-10-08T10:51:56;95684.69;;;19.25;59.46
23363;BME280;11853;48.080;11.960;2023-10-08T10:54:25;95692.09;;;19.23;60.35
23363;BME280;11853;48.080;11.960;2023-10-08T10:57:01;95693.78;;;19.24;60.59
23363;BME280;11853;48.080;11.960;2023-10-08T10:59:43;95683.41;;;19.21;61.15
23363;BME280;11853;48.080;11.960;2023-10-08T11:02:19;95694.16;;;19.21;60.78
23363;BME280;11853;48.080;11.960;2023-10-08T11:04:56;95684.78;;;19.17;61.02
23363;BME280;11853;48.080;11.960;2023-10-08T11:07:33;95679.59;;;19.15;61.05
23363;BME280;11853;48.080;11.960;2023-10-08T11:10:00;95680.44;;;19.16;61.87
23363;BME280;11853;48.080;11.960;2023-10-08T11:12:25;95673.00;;;19.18;61.56
23363;BME280;11853;48.080;11.960;2023-10-08T11:15:10;95666.97;;;19.16;62.65
23363;BME280;11853;48.080;11.960;2023-10-08T11:17:41;95662.25;;;19.18;62.48
23363;BME280;11853;48.080;11.960;2023-10-08T11:20:28;95665.94;;;19.17;63.54
23363;BME280;11853;48.080;11.960;2023-10-08T11:22:55;95660.78;;;19.15;63.47
23363;BME280;11853;48.080;11.960;2023-10-08T11:25:22;95649.81;;;19.17;63.82
23363;BME280;11853;48.080;11.960;2023-10-08T11:27:51;95649.81;;;19.17;64.27
23363;BME280;11853;48.080;11.960;2023-10-08T11:30:24;95638.22;;;19.16;64.34
23363;BME280;11853;48.080;11.960;2023-10-08T11:32:50;95642.38;;;19.19;63.59
23363;BME280;11853;48.080;11.960;2023-10-08T11:35:16;95662.88;;;19.20;62.23
23363;BME280;11853;48.080;11.960;2023-10-08T11:37:46;95661.88;;;19.21;62.22
23363;BME280;11853;48.080;11.960;2023-10-08T11:40:23;95666.44;;;19.20;62.23
23363;BME280;11853;48.080;11.960;2023-10-08T11:42:57;95662.72;;;19.21;62.48
23363;BME280;11853;48.080;11.960;2023-10-08T11:45:28;95655.66;;;19.20;62.46
23363;BME280;11853;48.080;11.960;2023-10-08T11:48:07;95660.19;;;19.20;62.51
23363;BME280;11853;48.080;11.960;2023-10-08T11:50:39;95649.25;;;19.21;62.72
23363;BME280;11853;48.080;11.960;2023-10-08T11:53:05;95643.69;;;19.23;62.86
23363;BME280;11853;48.080;11.960;2023-10-08T11:55:33;95641.84;;;19.23;62.99
23363;BME280;11853;48.080;11.960;2023-10-08T11:58:07;95645.38;;;19.24;62.66
23363;BME280;11853;48.080;11.960;2023-10-08T12:00:39;95654.91;;;19.26;62.18
23363;BME280;11853;48.080;11.960;2023-10-08T12:03:12;95650.38;;;19.27;62.09
23363;BME280;11853;48.080;11.960;2023-10-08T12:05:38;95644.16;;;19.26;62.31
23363;BME280;11853;48.080;11.960;2023-10-08T12:08:17;95651.66;;;19.31;61.19
23363;BME280;11853;48.080;11.960;2023-10-08T12:10:47;95652.03;;;19.28;62.19
23363;BME280;11853;48.080;11.960;2023-10-08T12:13:14;95650.00;;;19.30;62.36
23363;BME280;11853;48.080;11.960;2023-10-08T12:15:42;95653.97;;;19.34;62.52
23363;BME280;11853;48.080;11.960;2023-10-08T12:18:10;95661.88;;;19.35;62.24
23363;BME280;11853;48.080;11.960;2023-10-08T12:21:02;95656.28;;;19.37;62.55
23363;BME280;11853;48.080;11.960;2023-10-08T12:23:28;95663.34;;;19.38;62.85
23363;BME280;11853;48.080;11.960;2023-10-08T12:25:59;95659.84;;;19.38;62.79
23363;BME280;11853;48.080;11.960;2023-10-08T12:28:26;95657.31;;;19.36;62.40
23363;BME280;11853;48.080;11.960;2023-10-08T12:30:56;95663.16;;;19.40;62.36
23363;BME280;11853;48.080;11.960;2023-10-08T12:33:22;95659.19;;;19.35;62.67
23363;BME280;11853;48.080;11.960;2023-10-08T12:35:52;95662.53;;;19.38;62.61
23363;BME280;11853;48.080;11.960;2023-10-08T12:38:24;95656.28;;;19.37;62.27
23363;BME280;11853;48.080;11.960;2023-10-08T12:40:54;95654.63;;;19.36;62.42
23363;BME280;11853;48.080;11.960;2023-10-08T12:43:23;95640.50;;;19.34;62.41
23363;BME280;11853;48.080;11.960;2023-10-08T12:45:53;95657.53;;;19.34;62.62
23363;BME280;11853;48.080;11.960;2023-10-08T12:48:22;95658.72;;;19.32;62.69
23363;BME280;11853;48.080;11.960;2023-10-08T12:50:50;95645.06;;;19.33;62.59
23363;BME280;11853;48.080;11.960;2023-10-08T12:53:26;95636.16;;;19.33;62.72
23363;BME280;11853;48.080;11.960;2023-10-08T12:56:06;95627.25;;;19.32;63.20
23363;BME280;11853;48.080;11.960;2023-10-08T12:58:36;95621.44;;;19.29;62.87
23363;BME280;11853;48.080;11.960;2023-10-08T13:01:16;95611.94;;;19.33;62.73
23363;BME280;11853;48.080;11.960;2023-10-08T13:03:47;95601.56;;;19.30;62.55
23363;BME280;11853;48.080;11.960;2023-10-08T13:06:15;95615.28;;;19.35;62.09
23363;BME280;11853;48.080;11.960;2023-10-08T13:08:51;95624.38;;;19.34;61.69
23363;BME280;11853;48.080;11.960;2023-10-08T13:11:21;95631.44;;;19.35;61.49
23363;BME280;11853;48.080;11.960;2023-10-08T13:13:54;95633.09;;;19.36;61.92
23363;BME280;11853;48.080;11.960;2023-10-08T13:16:27;95616.94;;;19.36;62.10
23363;BME280;11853;48.080;11.960;2023-10-08T13:18:57;95619.47;;;19.38;61.67
23363;BME280;11853;48.080;11.960;2023-10-08T13:21:25;95626.50;;;19.39;61.21
23363;BME280;11853;48.080;11.960;2023-10-08T13:23:51;95611.38;;;19.38;61.85
23363;BME280;11853;48.080;11.960;2023-10-08T13:26:17;95614.09;;;19.38;62.73
23363;BME280;11853;48.080;11.960;2023-10-08T13:28:44;95604.16;;;19.38;62.91
23363;BME280;11853;48.080;11.960;2023-10-08T13:31:15;95607.84;;;19.37;62.88